Time;durP1;ratioP1;P1;durP2;ratioP2;P2;SDS_P1;SDS_P2;PMS_P1;PMS_P2;Temp;Humidity;BMP_temperature;BMP_pressure;BME280_temperature;BME280_humidity;BME280_pressure;Samples;Min_cycle;Max_cycle;Signal;HPM_P1;HPM_P2
2022/09/11 00:01:45;;;;;;;;;;;;;;;;;;10419205;28;19951;-64
2022/09/11 00:06:47;;;;;;;;;;;;;;;;;;10420976;28;19936;-64
2022/09/11 00:11:49;;;;;;;;;;;;;;;;;;10420474;28;19979;-64
2022/09/11 00:16:51;;;;;;;;;;;;;;;;;;10392134;28;19925;-64
2022/09/11 00:21:56;;;;;;;;;;;;;;;;;;10401605;28;20389;-64
2022/09/11 00:26:58;;;;;;;;;;;;;;;;;;10420746;28;19925;-64
2022/09/11 00:32:00;;;;;;;;;;;;;;;;;;10420068;28;19929;-64
2022/09/11 00:37:02;;;;;;;;;;;;;;;;;;10419317;28;19991;-64
2022/09/11 00:42:04;;;;;;;;;;;;;;;;;;10418920;28;20338;-64
2022/09/11 00:47:07;;;;;;;;;;;;;;;;;;10419968;28;19929;-64
2022/09/11 00:52:10;;;;;;;;;;;;;;;;;;10417989;28;20331;-64
2022/09/11 00:57:12;;;;;;;;;;;;;;;;;;10418915;28;19971;-64
2022/09/11 01:02:14;;;;;;;;;;;;;;;;;;10418499;28;19929;-64
2022/09/11 01:07:16;;;;;;;;;;;;;;;;;;10417709;28;20296;-65
2022/09/11 01:12:18;;;;;;;;;;;;;;;;;;10418933;28;20019;-64
2022/09/11 01:17:20;;;;;;;;;;;;;;;;;;10417402;28;20429;-64
2022/09/11 01:22:22;;;;;;;;;;;;;;;;;;10416463;28;19925;-64
2022/09/11 01:27:25;;;;;;;;;;;;;;;;;;10417239;28;19925;-64
2022/09/11 01:32:27;;;;;;;;;;;;;;;;;;10417316;28;19937;-64
2022/09/11 01:37:30;;;;;;;;;;;;;;;;;;10415589;28;19955;-64
2022/09/11 01:42:32;;;;;;;;;;;;;;;;;;10416817;28;19925;-64
2022/09/11 01:47:35;;;;;;;;;;;;;;;;;;10417592;28;19952;-64
2022/09/11 01:52:37;;;;;;;;;;;;;;;;;;10417469;28;20075;-64
2022/09/11 01:57:39;;;;;;;;;;;;;;;;;;10415841;28;19926;-64
2022/09/11 02:02:41;;;;;;;;;;;;;;;;;;10415305;28;19929;-64
2022/09/11 02:07:43;;;;;;;;;;;;;;;;;;10416955;28;19925;-64
2022/09/11 02:12:45;;;;;;;;;;;;;;;;;;10416181;28;20414;-64
2022/09/11 02:17:47;;;;;;;;;;;;;;;;;;10415810;28;19929;-64
2022/09/11 02:22:49;;;;;;;;;;;;;;;;;;10415594;28;19926;-64
2022/09/11 02:27:51;;;;;;;;;;;;;;;;;;10415073;28;19925;-64
2022/09/11 02:32:53;;;;;;;;;;;;;;;;;;10415642;28;19929;-64
2022/09/11 02:37:55;;;;;;;;;;;;;;;;;;10415461;28;19972;-64
2022/09/11 02:42:57;;;;;;;;;;;;;;;;;;10414373;28;19929;-64
2022/09/11 02:47:59;;;;;;;;;;;;;;;;;;10415705;28;20380;-64
2022/09/11 02:53:01;;;;;;;;;;;;;;;;;;10415209;28;19971;-65
2022/09/11 02:58:04;;;;;;;;;;;;;;;;;;10415043;28;19929;-64
2022/09/11 03:03:06;;;;;;;;;;;;;;;;;;10413467;28;20339;-64
2022/09/11 03:08:08;;;;;;;;;;;;;;;;;;10415574;28;19955;-65
2022/09/11 03:13:10;;;;;;;;;;;;;;;;;;10414830;28;19929;-65
2022/09/11 03:18:14;;;;;;;;;;;;;;;;;;10413805;28;19947;-64
2022/09/11 03:23:16;;;;;;;;;;;;;;;;;;10414454;28;19925;-64
2022/09/11 03:28:18;;;;;;;;;;;;;;;;;;10414547;28;19952;-64
2022/09/11 03:33:21;;;;;;;;;;;;;;;;;;10413709;28;19979;-65
2022/09/11 03:38:23;;;;;;;;;;;;;;;;;;10397438;28;19975;-64
2022/09/11 03:43:25;;;;;;;;;;;;;;;;;;10413450;28;19925;-64
2022/09/11 03:48:28;;;;;;;;;;;;;;;;;;10421568;28;19987;-64
2022/09/11 03:53:31;;;;;;;;;;;;;;;;;;10420722;28;20398;-64
2022/09/11 03:58:33;;;;;;;;;;;;;;;;;;10399882;28;19926;-64
2022/09/11 04:03:36;;;;;;;;;;;;;;;;;;10417924;28;19932;-64
2022/09/11 04:08:38;;;;;;;;;;;;;;;;;;10421505;28;19929;-65
2022/09/11 04:13:40;;;;;;;;;;;;;;;;;;10420535;28;19926;-65
2022/09/11 04:18:43;;;;;;;;;;;;;;;;;;10420356;28;19929;-65
2022/09/11 04:23:45;;;;;;;;;;;;;;;;;;10419306;28;20327;-65
2022/09/11 04:28:47;;;;;;;;;;;;;;;;;;10420028;28;19933;-65
2022/09/11 04:33:49;;;;;;;;;;;;;;;;;;10418936;28;20376;-64
2022/09/11 04:38:53;;;;;;;;;;;;;;;;;;10403056;28;19975;-64
2022/09/11 04:43:55;;;;;;;;;;;;;;;;;;10417182;28;19925;-64
2022/09/11 04:49:01;;;;;;;;;;;;;;;;;;10419941;28;19932;-64
2022/09/11 04:54:03;;;;;;;;;;;;;;;;;;10419052;28;19932;-64
2022/09/11 04:59:05;;;;;;;;;;;;;;;;;;10416944;28;19979;-65
2022/09/11 05:04:07;;;;;;;;;;;;;;;;;;10401684;28;19978;-65
2022/09/11 05:09:09;;;;;;;;;;;;;;;;;;10419198;28;20040;-65
2022/09/11 05:14:11;;;;;;;;;;;;;;;;;;10417373;28;20311;-64
2022/09/11 05:19:13;;;;;;;;;;;;;;;;;;10416029;28;20369;-64
2022/09/11 05:24:15;;;;;;;;;;;;;;;;;;10418428;28;19956;-64
2022/09/11 05:29:18;;;;;;;;;;;;;;;;;;10417297;28;19928;-65
2022/09/11 05:34:21;;;;;;;;;;;;;;;;;;10417447;28;19925;-68
2022/09/11 05:39:23;;;;;;;;;;;;;;;;;;10416947;28;19940;-66
2022/09/11 05:44:25;;;;;;;;;;;;;;;;;;10417673;28;19952;-65
2022/09/11 05:49:27;;;;;;;;;;;;;;;;;;10416042;28;19925;-65
2022/09/11 05:54:29;;;;;;;;;;;;;;;;;;10417409;28;19925;-65
2022/09/11 05:59:31;;;;;;;;;;;;;;;;;;10415692;28;19971;-65
2022/09/11 06:04:33;;;;;;;;;;;;;;;;;;10416863;28;19979;-66
2022/09/11 06:09:35;;;;;;;;;;;;;;;;;;10416567;28;19925;-66
2022/09/11 06:14:37;;;;;;;;;;;;;;;;;;10415851;28;19929;-66
2022/09/11 06:19:40;;;;;;;;;;;;;;;;;;10411512;28;19925;-66
2022/09/11 06:24:42;;;;;;;;;;;;;;;;;;10416348;28;19979;-66
2022/09/11 06:29:44;;;;;;;;;;;;;;;;;;10416348;28;19925;-66
2022/09/11 06:34:46;;;;;;;;;;;;;;;;;;10373527;28;19972;-66
2022/09/11 06:39:48;;;;;;;;;;;;;;;;;;10374206;28;19930;-66
2022/09/11 06:44:50;;;;;;;;;;;;;;;;;;10374447;28;19948;-66
2022/09/11 06:49:52;;;;;;;;;;;;;;;;;;10374217;28;19972;-66
2022/09/11 06:54:56;;;;;;;;;;;;;;;;;;10374413;28;20434;-66
2022/09/11 06:59:58;;;;;;;;;;;;;;;;;;10372563;28;19975;-66
2022/09/11 07:05:00;;;;;;;;;;;;;;;;;;10373280;28;20384;-66
2022/09/11 07:10:03;;;;;;;;;;;;;;;;;;10373540;28;19925;-66
2022/09/11 07:15:05;;;;;;;;;;;;;;;;;;10374020;28;19979;-66
2022/09/11 07:20:08;;;;;;;;;;;;;;;;;;10374906;28;20389;-66
2022/09/11 07:25:10;;;;;;;;;;;;;;;;;;10381290;28;19926;-66
2022/09/11 07:30:12;;;;;;;;;;;;;;;;;;10385489;28;19929;-65
2022/09/11 07:35:20;;;;;;;;;;;;;;;;;;10422865;28;19925;-66
2022/09/11 07:40:22;;;;;;;;;;;;;;;;;;10421114;28;19952;-65
2022/09/11 07:45:26;;;;;;;;;;;;;;;;;;10422279;28;19925;-65
2022/09/11 07:50:29;;;;;;;;;;;;;;;;;;10420363;28;19929;-66
2022/09/11 07:55:31;;;;;;;;;;;;;;;;;;10422006;28;19929;-65
2022/09/11 08:00:34;;;;;;;;;;;;;;;;;;10420177;28;19975;-66
2022/09/11 08:05:38;;;;;;;;;;;;;;;;;;10422045;28;19929;-66
2022/09/11 08:10:40;;;;;;;;;;;;;;;;;;10420858;28;19925;-66
2022/09/11 08:15:42;;;;;;;;;;;;;;;;;;10418460;28;20297;-66
2022/09/11 08:20:44;;;;;;;;;;;;;;;;;;10421067;28;19925;-66
2022/09/11 08:25:46;;;;;;;;;;;;;;;;;;10420160;28;19925;-66
2022/09/11 08:30:48;;;;;;;;;;;;;;;;;;10419668;28;19929;-65
2022/09/11 08:35:50;;;;;;;;;;;;;;;;;;10420513;28;19925;-65
2022/09/11 08:40:52;;;;;;;;;;;;;;;;;;10419722;28;19951;-66
2022/09/11 08:45:55;;;;;;;;;;;;;;;;;;10420115;28;19925;-65
2022/09/11 08:50:57;;;;;;;;;;;;;;;;;;10419993;28;19925;-66
2022/09/11 08:55:59;;;;;;;;;;;;;;;;;;10419478;28;20376;-66
2022/09/11 09:01:01;;;;;;;;;;;;;;;;;;10419565;28;19925;-66
2022/09/11 09:06:03;;;;;;;;;;;;;;;;;;10419256;28;19925;-66
2022/09/11 09:11:05;;;;;;;;;;;;;;;;;;10418531;28;19925;-67
2022/09/11 09:16:08;;;;;;;;;;;;;;;;;;10418909;28;19979;-67
2022/09/11 09:21:10;;;;;;;;;;;;;;;;;;10418633;28;19971;-67
2022/09/11 09:26:14;;;;;;;;;;;;;;;;;;10418527;28;19929;-67
2022/09/11 09:31:16;;;;;;;;;;;;;;;;;;10417998;28;19975;-67
2022/09/11 09:36:19;;;;;;;;;;;;;;;;;;10418119;28;19983;-67
2022/09/11 09:41:21;;;;;;;;;;;;;;;;;;10417804;28;19979;-67
2022/09/11 09:46:23;;;;;;;;;;;;;;;;;;10424442;22;20426;-67
2022/09/11 09:51:25;;;;;;;;;;;;;;;;;;10416475;28;19925;-68
2022/09/11 09:56:29;;;;;;;;;;;;;;;;;;10416923;28;20383;-68
2022/09/11 10:01:32;;;;;;;;;;;;;;;;;;10416560;28;19987;-68
2022/09/11 10:06:34;;;;;;;;;;;;;;;;;;10416443;28;20365;-68
2022/09/11 10:11:36;;;;;;;;;;;;;;;;;;10416934;28;19925;-68
2022/09/11 10:16:39;;;;;;;;;;;;;;;;;;10415814;28;20375;-68
2022/09/11 10:21:41;;;;;;;;;;;;;;;;;;10415574;28;19929;-68
2022/09/11 10:26:44;;;;;;;;;;;;;;;;;;10415180;28;20379;-68
2022/09/11 10:31:46;;;;;;;;;;;;;;;;;;10416244;28;19932;-68
2022/09/11 10:36:48;;;;;;;;;;;;;;;;;;10415521;28;19925;-68
2022/09/11 10:41:53;;;;;;;;;;;;;;;;;;10416057;28;19925;-69
2022/09/11 10:46:55;;;;;;;;;;;;;;;;;;10415222;28;20376;-64
2022/09/11 10:51:57;;;;;;;;;;;;;;;;;;10415926;28;19975;-64
2022/09/11 10:56:59;;;;;;;;;;;;;;;;;;10421012;28;19929;-64
2022/09/11 11:02:02;;;;;;;;;;;;;;;;;;10423439;28;19925;-64
2022/09/11 11:07:04;;;;;;;;;;;;;;;;;;10423877;28;20394;-64
2022/09/11 11:12:08;;;;;;;;;;;;;;;;;;10423712;28;19931;-64
2022/09/11 11:17:10;;;;;;;;;;;;;;;;;;10423622;28;19925;-65
2022/09/11 11:22:12;;;;;;;;;;;;;;;;;;10423247;28;19925;-64
2022/09/11 11:27:14;;;;;;;;;;;;;;;;;;10423225;28;19929;-64
2022/09/11 11:32:16;;;;;;;;;;;;;;;;;;10423029;28;19928;-64
2022/09/11 11:37:18;;;;;;;;;;;;;;;;;;10422813;28;19925;-65
2022/09/11 11:42:20;;;;;;;;;;;;;;;;;;10422617;28;19925;-64
2022/09/11 11:47:24;;;;;;;;;;;;;;;;;;10421986;28;19979;-64
2022/09/11 11:52:26;;;;;;;;;;;;;;;;;;10422306;28;19925;-64
2022/09/11 11:57:30;;;;;;;;;;;;;;;;;;10421456;28;19925;-65
2022/09/11 12:02:32;;;;;;;;;;;;;;;;;;10421179;28;19973;-64
2022/09/11 12:07:35;;;;;;;;;;;;;;;;;;10421115;28;19925;-64
2022/09/11 12:12:37;;;;;;;;;;;;;;;;;;10422008;28;19978;-65
2022/09/11 12:17:39;;;;;;;;;;;;;;;;;;10420653;28;20277;-64
2022/09/11 12:22:41;;;;;;;;;;;;;;;;;;10421010;28;19971;-64
2022/09/11 12:27:43;;;;;;;;;;;;;;;;;;10420246;28;19971;-64
2022/09/11 12:32:46;;;;;;;;;;;;;;;;;;10420106;28;19991;-64
2022/09/11 12:37:48;;;;;;;;;;;;;;;;;;10419830;28;20361;-64
2022/09/11 12:42:55;;;;;;;;;;;;;;;;;;10419609;28;19999;-64
2022/09/11 12:47:57;;;;;;;;;;;;;;;;;;10419497;28;19925;-64
2022/09/11 12:53:02;;;;;;;;;;;;;;;;;;10419943;28;19929;-64
2022/09/11 12:58:05;;;;;;;;;;;;;;;;;;10419546;28;19953;-64
2022/09/11 13:03:07;;;;;;;;;;;;;;;;;;10418804;28;20327;-64
2022/09/11 13:08:09;;;;;;;;;;;;;;;;;;10419867;28;19979;-64
2022/09/11 13:13:11;;;;;;;;;;;;;;;;;;10419133;28;19952;-64
2022/09/11 13:18:13;;;;;;;;;;;;;;;;;;10417999;28;19925;-64
2022/09/11 13:23:19;;;;;;;;;;;;;;;;;;10416463;28;19929;-64
2022/09/11 13:28:21;;;;;;;;;;;;;;;;;;10417511;28;19929;-65
2022/09/11 13:33:28;;;;;;;;;;;;;;;;;;10417204;28;20019;-65
2022/09/11 13:38:31;;;;;;;;;;;;;;;;;;10418191;28;19933;-64
2022/09/11 13:43:34;;;;;;;;;;;;;;;;;;10417901;28;19929;-64
2022/09/11 13:48:37;;;;;;;;;;;;;;;;;;10439573;28;19924;-65
2022/09/11 13:53:40;;;;;;;;;;;;;;;;;;10457991;28;20334;-64
2022/09/11 13:58:43;;;;;;;;;;;;;;;;;;10458601;28;19925;-64
2022/09/11 14:03:45;;;;;;;;;;;;;;;;;;10453331;28;19929;-64
2022/09/11 14:08:47;;;;;;;;;;;;;;;;;;10416926;28;19929;-64
2022/09/11 14:13:49;;;;;;;;;;;;;;;;;;10416899;28;19952;-64
2022/09/11 14:18:54;;;;;;;;;;;;;;;;;;10415809;28;19979;-73
2022/09/11 14:23:56;;;;;;;;;;;;;;;;;;10415960;28;20016;-69
2022/09/11 14:28:59;;;;;;;;;;;;;;;;;;10415698;28;19929;-70
2022/09/11 14:34:01;;;;;;;;;;;;;;;;;;10411645;28;19925;-70
2022/09/11 14:39:04;;;;;;;;;;;;;;;;;;10415495;28;19971;-69
2022/09/11 14:44:06;;;;;;;;;;;;;;;;;;10414720;28;20273;-68
2022/09/11 14:49:08;;;;;;;;;;;;;;;;;;10415277;28;19929;-69
2022/09/11 14:54:10;;;;;;;;;;;;;;;;;;10414248;28;20442;-69
2022/09/11 14:59:12;;;;;;;;;;;;;;;;;;10415800;28;19971;-69
2022/09/11 15:04:14;;;;;;;;;;;;;;;;;;10415048;28;20288;-69
2022/09/11 15:09:17;;;;;;;;;;;;;;;;;;10414583;28;19925;-69
2022/09/11 15:14:19;;;;;;;;;;;;;;;;;;10413195;28;20319;-70
2022/09/11 15:19:39;;;;;;;;;;;;;;;;;;10414404;28;19965;-69
2022/09/11 15:24:41;;;;;;;;;;;;;;;;;;10414310;28;20364;-69
2022/09/11 15:29:44;;;;;;;;;;;;;;;;;;10412791;28;19929;-69
2022/09/11 15:34:46;;;;;;;;;;;;;;;;;;10412578;28;20515;-69
2022/09/11 15:39:49;;;;;;;;;;;;;;;;;;10407392;28;19979;-69
2022/09/11 15:44:51;;;;;;;;;;;;;;;;;;10419892;28;20008;-69
2022/09/11 15:49:53;;;;;;;;;;;;;;;;;;10421487;28;19994;-69
2022/09/11 15:54:56;;;;;;;;;;;;;;;;;;10421028;28;19925;-69
2022/09/11 15:59:58;;;;;;;;;;;;;;;;;;10420638;28;20431;-69
2022/09/11 16:05:00;;;;;;;;;;;;;;;;;;10421062;28;19929;-69
2022/09/11 16:10:02;;;;;;;;;;;;;;;;;;10421046;28;19925;-69
2022/09/11 16:15:04;;;;;;;;;;;;;;;;;;10421421;28;19928;-69
2022/09/11 16:20:06;;;;;;;;;;;;;;;;;;10421209;28;19925;-69
2022/09/11 16:25:08;;;;;;;;;;;;;;;;;;10420993;28;19925;-69
2022/09/11 16:30:10;;;;;;;;;;;;;;;;;;10420244;28;20335;-69
2022/09/11 16:35:33;;;;;;;;;;;;;;;;;;10418429;28;20011;-69
2022/09/11 16:40:35;;;;;;;;;;;;;;;;;;10415939;28;19925;-69
2022/09/11 16:45:38;;;;;;;;;;;;;;;;;;10456337;28;19964;-69
2022/09/11 16:50:40;;;;;;;;;;;;;;;;;;10460157;28;19928;-69
2022/09/11 16:55:42;;;;;;;;;;;;;;;;;;10461006;28;19925;-69
2022/09/11 17:00:44;;;;;;;;;;;;;;;;;;10427070;28;19978;-69
2022/09/11 17:05:46;;;;;;;;;;;;;;;;;;10417084;28;19932;-69
2022/09/11 17:10:49;;;;;;;;;;;;;;;;;;10412668;28;19925;-69
2022/09/11 17:15:51;;;;;;;;;;;;;;;;;;10417489;28;19978;-69
2022/09/11 17:20:53;;;;;;;;;;;;;;;;;;10414585;28;20024;-69
2022/09/11 17:25:55;;;;;;;;;;;;;;;;;;10410722;28;19925;-69
2022/09/11 17:30:57;;;;;;;;;;;;;;;;;;10408413;28;19926;-69
2022/09/11 17:36:00;;;;;;;;;;;;;;;;;;10410784;28;19925;-69
2022/09/11 17:41:02;;;;;;;;;;;;;;;;;;10451436;28;19986;-69
2022/09/11 17:46:04;;;;;;;;;;;;;;;;;;10410798;28;19925;-69
2022/09/11 17:51:08;;;;;;;;;;;;;;;;;;10414670;28;19925;-69
2022/09/11 17:56:11;;;;;;;;;;;;;;;;;;10415217;28;19929;-69
2022/09/11 18:01:15;;;;;;;;;;;;;;;;;;10413859;28;20336;-69
2022/09/11 18:06:18;;;;;;;;;;;;;;;;;;10415349;28;19925;-69
2022/09/11 18:11:20;;;;;;;;;;;;;;;;;;10415802;28;20011;-69
2022/09/11 18:16:22;;;;;;;;;;;;;;;;;;10433300;28;19925;-69
2022/09/11 18:21:25;;;;;;;;;;;;;;;;;;10414882;28;19968;-69
2022/09/11 18:26:27;;;;;;;;;;;;;;;;;;10415755;28;19925;-69
2022/09/11 18:31:31;;;;;;;;;;;;;;;;;;10415812;28;19936;-69
2022/09/11 18:36:34;;;;;;;;;;;;;;;;;;10415693;28;20296;-69
2022/09/11 18:41:36;;;;;;;;;;;;;;;;;;10415019;28;19925;-63
2022/09/11 18:46:38;;;;;;;;;;;;;;;;;;10414500;28;20434;-62
2022/09/11 18:51:43;;;;;;;;;;;;;;;;;;10414675;28;19983;-62
2022/09/11 18:56:46;;;;;;;;;;;;;;;;;;10413936;28;19925;-62
2022/09/11 19:01:48;;;;;;;;;;;;;;;;;;10415853;28;19925;-62
2022/09/11 19:06:50;;;;;;;;;;;;;;;;;;10415671;28;19936;-62
2022/09/11 19:11:53;;;;;;;;;;;;;;;;;;10413804;28;19925;-62
2022/09/11 19:16:55;;;;;;;;;;;;;;;;;;10418263;28;19929;-62
2022/09/11 19:21:58;;;;;;;;;;;;;;;;;;10423197;28;19980;-62
2022/09/11 19:27:01;;;;;;;;;;;;;;;;;;10421504;28;19999;-62
2022/09/11 19:32:03;;;;;;;;;;;;;;;;;;10421895;28;19929;-62
2022/09/11 19:37:05;;;;;;;;;;;;;;;;;;10422333;28;19929;-62
2022/09/11 19:42:08;;;;;;;;;;;;;;;;;;10421564;28;19952;-62
2022/09/11 19:47:10;;;;;;;;;;;;;;;;;;10422112;28;19929;-62
2022/09/11 19:52:14;;;;;;;;;;;;;;;;;;10420982;28;19925;-62
2022/09/11 19:57:16;;;;;;;;;;;;;;;;;;10419919;28;19973;-62
2022/09/11 20:02:18;;;;;;;;;;;;;;;;;;10420739;28;20328;-62
2022/09/11 20:07:20;;;;;;;;;;;;;;;;;;10421095;28;20407;-62
2022/09/11 20:12:22;;;;;;;;;;;;;;;;;;10421624;28;19973;-62
2022/09/11 20:17:25;;;;;;;;;;;;;;;;;;10419655;28;19971;-62
2022/09/11 20:22:27;;;;;;;;;;;;;;;;;;10419208;28;19929;-62
2022/09/11 20:27:29;;;;;;;;;;;;;;;;;;10419841;28;19925;-62
2022/09/11 20:32:31;;;;;;;;;;;;;;;;;;10419647;28;19933;-62
2022/09/11 20:37:33;;;;;;;;;;;;;;;;;;10419045;28;20335;-62
2022/09/11 20:42:35;;;;;;;;;;;;;;;;;;10420456;28;19929;-62
2022/09/11 20:47:37;;;;;;;;;;;;;;;;;;10419416;28;19929;-62
2022/09/11 20:52:41;;;;;;;;;;;;;;;;;;10417015;28;19975;-62
2022/09/11 20:57:43;;;;;;;;;;;;;;;;;;10420003;28;20047;-62
2022/09/11 21:02:45;;;;;;;;;;;;;;;;;;10419077;28;19925;-62
2022/09/11 21:07:47;;;;;;;;;;;;;;;;;;10420117;28;19929;-62
2022/09/11 21:12:51;;;;;;;;;;;;;;;;;;10415192;28;20372;-62
2022/09/11 21:17:53;;;;;;;;;;;;;;;;;;10418364;28;20330;-62
2022/09/11 21:22:55;;;;;;;;;;;;;;;;;;10417557;28;19929;-62
2022/09/11 21:27:57;;;;;;;;;;;;;;;;;;10417566;28;19925;-62
2022/09/11 21:32:59;;;;;;;;;;;;;;;;;;10418437;28;19925;-62
2022/09/11 21:38:01;;;;;;;;;;;;;;;;;;10416871;28;19929;-62
2022/09/11 21:43:03;;;;;;;;;;;;;;;;;;10416924;28;19971;-62
2022/09/11 21:48:05;;;;;;;;;;;;;;;;;;10416229;28;19971;-62
2022/09/11 21:53:07;;;;;;;;;;;;;;;;;;10416726;28;20328;-62
2022/09/11 21:58:09;;;;;;;;;;;;;;;;;;10416903;28;19929;-62
2022/09/11 22:03:11;;;;;;;;;;;;;;;;;;10462441;22;19929;-57
2022/09/11 22:08:13;;;;;;;;;;;;;;;;;;10457678;28;19928;-57
2022/09/11 22:13:16;;;;;;;;;;;;;;;;;;10458312;28;19951;-57
2022/09/11 22:18:18;;;;;;;;;;;;;;;;;;10457507;28;20364;-57
2022/09/11 22:23:20;;;;;;;;;;;;;;;;;;10456098;28;20383;-57
2022/09/11 22:28:22;;;;;;;;;;;;;;;;;;10456336;28;19928;-57
2022/09/11 22:33:24;;;;;;;;;;;;;;;;;;10457620;28;19924;-57
2022/09/11 22:38:27;;;;;;;;;;;;;;;;;;10456661;28;19947;-57
2022/09/11 22:43:29;;;;;;;;;;;;;;;;;;10456734;28;20253;-57
2022/09/11 22:48:31;;;;;;;;;;;;;;;;;;10455948;28;19932;-57
2022/09/11 22:53:33;;;;;;;;;;;;;;;;;;10470336;28;19925;-57
2022/09/11 22:58:37;;;;;;;;;;;;;;;;;;10469858;28;20012;-57
2022/09/11 23:03:39;;;;;;;;;;;;;;;;;;10470159;28;19925;-57
2022/09/11 23:08:41;;;;;;;;;;;;;;;;;;10469239;28;19928;-57
2022/09/11 23:13:43;;;;;;;;;;;;;;;;;;10470634;28;19931;-57
2022/09/11 23:18:45;;;;;;;;;;;;;;;;;;10470574;28;19924;-57
2022/09/11 23:23:47;;;;;;;;;;;;;;;;;;10469685;28;19925;-57
2022/09/11 23:28:54;;;;;;;;;;;;;;;;;;10469306;28;19935;-57
2022/09/11 23:33:56;;;;;;;;;;;;;;;;;;10470218;28;19928;-57
2022/09/11 23:38:58;;;;;;;;;;;;;;;;;;10469896;28;19928;-57
2022/09/11 23:44:02;;;;;;;;;;;;;;;;;;10467906;28;20042;-57
2022/09/11 23:49:05;;;;;;;;;;;;;;;;;;10469328;28;19935;-57
2022/09/11 23:54:07;;;;;;;;;;;;;;;;;;10469405;28;19929;-57
2022/09/11 23:59:10;;;;;;;;;;;;;;;;;;10469888;28;19970;-57
